Time;durP1;ratioP1;P1;durP2;ratioP2;P2;SDS_P1;SDS_P2;PMS_P1;PMS_P2;Temp;Humidity;BMP_temperature;BMP_pressure;BME280_temperature;BME280_humidity;BME280_pressure;Samples;Min_cycle;Max_cycle;Signal;HPM_P1;HPM_P2
2022/01/13 00:01:30;;;;;;;8.05;5.80;;;;;;;3.65;80.41;102384.82;1628288;87;21170;-89
2022/01/13 00:03:52;;;;;;;8.90;5.75;;;;;;;3.68;80.43;102390.28;1628309;88;21934;-89
2022/01/13 00:06:21;;;;;;;7.80;4.53;;;;;;;3.70;80.50;102378.29;1605900;88;21095;-90
2022/01/13 00:08:52;;;;;;;8.65;4.10;;;;;;;3.73;80.39;102368.90;1628454;87;21158;-90
2022/01/13 00:11:18;;;;;;;8.73;4.50;;;;;;;3.73;80.42;102368.50;1628761;86;21109;-89
2022/01/13 00:14:07;;;;;;;10.63;4.50;;;;;;;3.74;80.43;102374.64;1628853;88;21220;-89
2022/01/13 00:19:06;;;;;;;6.53;3.90;;;;;;;3.72;80.55;102368.37;1629023;88;21558;-87
2022/01/13 00:21:36;;;;;;;7.70;5.10;;;;;;;3.74;80.61;102381.15;1627010;87;21126;-88
2022/01/13 00:24:01;;;;;;;6.55;4.33;;;;;;;3.75;80.62;102386.85;1628218;87;21710;-88
2022/01/13 00:26:30;;;;;;;6.97;5.08;;;;;;;3.76;80.70;102386.98;1628640;88;21102;-87
2022/01/13 00:29:02;;;;;;;8.53;4.37;;;;;;;3.78;80.63;102383.20;1628875;88;21855;-88
2022/01/13 00:31:35;;;;;;;5.90;4.00;;;;;;;3.78;80.60;102393.62;1628783;88;21055;-91
2022/01/13 00:34:02;;;;;;;10.48;4.83;;;;;;;3.76;80.54;102400.41;1628130;88;21087;-91
2022/01/13 00:36:34;;;;;;;6.22;4.67;;;;;;;3.68;80.49;102402.00;1628537;88;21119;-89
2022/01/13 00:39:05;;;;;;;9.28;5.03;;;;;;;3.62;80.50;102399.29;1629180;87;21049;-88
2022/01/13 00:41:32;;;;;;;6.25;4.17;;;;;;;3.56;80.57;102392.30;1628462;88;21821;-90
2022/01/13 00:44:04;;;;;;;6.92;4.08;;;;;;;3.52;80.72;102406.77;1629127;88;21086;-90
2022/01/13 00:46:39;;;;;;;5.65;3.87;;;;;;;3.52;80.98;102405.47;1628335;88;21055;-90
2022/01/13 00:48:59;;;;;;;5.55;3.70;;;;;;;3.55;81.15;102404.79;1604780;88;21093;-90
2022/01/13 00:51:28;;;;;;;6.83;5.58;;;;;;;3.47;81.20;102388.56;1629224;87;21549;-90
2022/01/13 00:53:56;;;;;;;5.33;3.60;;;;;;;3.56;81.28;102412.73;1629642;88;21731;-91
2022/01/13 00:56:27;;;;;;;8.18;4.30;;;;;;;3.58;81.35;102408.55;1629300;88;21114;-90
2022/01/13 00:58:52;;;;;;;5.10;3.35;;;;;;;3.61;81.40;102406.61;1628861;88;21046;-91
2022/01/13 01:01:21;;;;;;;7.62;3.42;;;;;;;3.61;81.35;102395.79;1629631;87;21591;-90
2022/01/13 01:03:49;;;;;;;6.58;3.70;;;;;;;3.62;81.43;102385.91;1629626;88;21111;-90
2022/01/13 01:06:16;;;;;;;4.10;3.15;;;;;;;3.64;81.48;102385.63;1629357;87;21822;-87
2022/01/13 01:08:45;;;;;;;4.87;3.05;;;;;;;3.64;81.39;102367.77;1606401;88;21106;-87
2022/01/13 01:11:12;;;;;;;6.80;3.50;;;;;;;3.64;81.38;102359.59;1629305;88;21577;-87
2022/01/13 01:13:39;;;;;;;7.45;5.10;;;;;;;3.63;81.43;102346.03;1629387;88;21373;-87
2022/01/13 01:16:10;;;;;;;6.58;4.17;;;;;;;3.68;81.63;102345.12;1629311;87;21078;-88
2022/01/13 01:21:34;;;;;;;7.40;5.37;;;;;;;3.83;81.70;102320.63;1629396;88;21593;-89
2022/01/13 01:31:35;;;;;;;4.03;3.62;;;;;;;3.93;81.33;102294.52;1626936;88;21839;-90
2022/01/13 01:34:25;;;;;;;3.85;2.87;;;;;;;3.94;81.28;102284.98;1626718;86;21675;-90
2022/01/13 01:36:44;;;;;;;6.58;4.58;;;;;;;3.92;81.21;102288.78;1596837;88;21648;-91
2022/01/13 01:39:12;;;;;;;7.30;5.03;;;;;;;3.94;81.25;102268.06;1599196;88;21594;-89
2022/01/13 01:41:47;;;;;;;5.67;3.60;;;;;;;3.93;81.22;102264.55;1626876;88;21109;-89
2022/01/13 01:44:18;;;;;;;5.85;3.58;;;;;;;3.97;81.23;102267.90;1627032;87;21783;-89
2022/01/13 01:46:46;;;;;;;3.80;2.58;;;;;;;3.98;81.22;102267.49;1626689;88;21118;-89
2022/01/13 01:49:21;;;;;;;4.47;3.35;;;;;;;3.99;81.22;102262.81;1626671;88;21078;-90
2022/01/13 01:51:55;;;;;;;7.72;4.42;;;;;;;4.00;81.14;102247.70;1626613;88;21058;-85
2022/01/13 01:54:22;;;;;;;7.72;4.47;;;;;;;3.96;81.03;102246.56;1626869;88;21115;-89
2022/01/13 01:56:54;;;;;;;6.87;4.60;;;;;;;3.97;81.14;102237.04;1627026;88;21954;-90
2022/01/13 01:59:23;;;;;;;2.05;1.85;;;;;;;3.97;81.13;102235.73;1626328;88;21071;-89
2022/01/13 02:01:50;;;;;;;5.85;4.15;;;;;;;3.99;81.18;102238.95;1599936;88;21095;-92
2022/01/13 02:04:17;;;;;;;3.52;2.72;;;;;;;3.99;81.19;102223.33;1626986;88;21723;-91
2022/01/13 02:06:44;;;;;;;4.78;3.20;;;;;;;4.03;81.28;102220.55;1627090;88;21075;-89
2022/01/13 02:09:14;;;;;;;4.35;2.65;;;;;;;4.07;81.35;102233.02;1626957;88;22528;-90
2022/01/13 02:11:44;;;;;;;5.17;3.83;;;;;;;4.13;81.38;102232.20;1626426;88;21107;-89
2022/01/13 02:14:50;;;;;;;3.08;2.25;;;;;;;4.20;81.40;102236.15;1626710;88;21118;-89
2022/01/13 02:16:50;;;;;;;5.45;3.60;;;;;;;4.24;81.35;102218.64;1619081;87;21036;-89
2022/01/13 02:19:21;;;;;;;3.87;3.05;;;;;;;4.27;81.31;102218.47;1598374;88;22020;-87
2022/01/13 02:21:52;;;;;;;2.40;1.77;;;;;;;4.29;81.27;102217.28;1626430;87;21251;-88
2022/01/13 02:24:17;;;;;;;8.75;6.05;;;;;;;4.31;81.25;102207.88;1626488;86;21257;-88
2022/01/13 02:26:44;;;;;;;5.03;1.90;;;;;;;4.34;81.24;102187.26;1629111;88;21114;-88
2022/01/13 02:29:11;;;;;;;3.00;1.77;;;;;;;4.28;81.18;102172.48;1629188;88;21082;-88
2022/01/13 02:31:42;;;;;;;5.15;3.83;;;;;;;4.34;81.17;102170.31;1629062;88;21350;-89
2022/01/13 02:34:09;;;;;;;1.92;1.20;;;;;;;4.34;81.15;102153.37;1629184;86;21801;-88
2022/01/13 02:36:37;;;;;;;4.17;2.65;;;;;;;4.35;81.16;102138.22;1629367;88;21075;-89
2022/01/13 02:39:05;;;;;;;2.10;1.62;;;;;;;4.35;81.15;102126.89;1584601;88;21999;-90
2022/01/13 02:41:32;;;;;;;2.72;1.82;;;;;;;4.34;81.18;102131.21;1629549;88;21094;-88
2022/01/13 02:43:59;;;;;;;1.80;1.30;;;;;;;4.33;81.17;102118.95;1629480;88;21082;-89
2022/01/13 02:49:15;;;;;;;5.70;2.10;;;;;;;4.32;81.33;102114.55;1629349;88;21133;-88
2022/01/13 02:51:43;;;;;;;2.77;1.50;;;;;;;4.33;81.43;102116.34;1629446;88;21110;-89
2022/01/13 02:54:15;;;;;;;1.92;1.15;;;;;;;4.35;81.51;102136.91;1606449;88;21059;-87
2022/01/13 02:56:45;;;;;;;4.47;1.65;;;;;;;4.37;81.56;102137.92;1629273;88;21166;-91
2022/01/13 02:59:12;;;;;;;1.70;1.42;;;;;;;4.41;81.61;102136.45;1629407;88;21699;-89
2022/01/13 03:01:39;;;;;;;3.00;1.65;;;;;;;4.44;81.67;102128.86;1629571;88;21261;-91
2022/01/13 03:04:08;;;;;;;1.72;1.27;;;;;;;4.46;81.66;102124.66;1629587;88;21103;-90
2022/01/13 03:06:39;;;;;;;2.15;1.32;;;;;;;4.48;81.67;102125.67;1606966;88;21597;-90
2022/01/13 03:09:11;;;;;;;1.75;1.05;;;;;;;4.50;81.66;102120.58;1629234;88;21082;-91
2022/01/13 03:11:38;;;;;;;3.85;1.37;;;;;;;4.51;81.63;102127.62;1629524;88;21789;-92
2022/01/13 03:14:11;;;;;;;1.92;1.40;;;;;;;4.51;81.78;102135.03;1629566;88;21051;-92
2022/01/13 03:16:41;;;;;;;2.70;1.52;;;;;;;4.55;81.85;102134.45;1629437;88;21115;-89
2022/01/13 03:19:08;;;;;;;3.17;1.62;;;;;;;4.61;81.87;102139.20;1629415;88;21105;-89
2022/01/13 03:21:35;;;;;;;2.62;1.30;;;;;;;4.64;81.90;102127.69;1629389;88;21078;-90
2022/01/13 03:24:08;;;;;;;2.27;1.30;;;;;;;4.68;81.88;102114.95;1628839;87;22596;-90
2022/01/13 03:26:35;;;;;;;2.05;1.57;;;;;;;4.74;81.92;102106.66;1625034;87;21617;-88
2022/01/13 03:31:42;;;;;;;2.80;1.65;;;;;;;4.83;81.89;102107.72;1598656;87;21149;-91
2022/01/13 03:34:08;;;;;;;1.90;1.12;;;;;;;4.86;81.86;102107.53;1626108;87;21386;-89
2022/01/13 03:36:40;;;;;;;1.70;1.30;;;;;;;4.89;81.88;102113.77;1598745;88;21293;-86
2022/01/13 03:39:06;;;;;;;3.35;1.65;;;;;;;4.92;81.88;102097.92;1626248;87;21122;-88
2022/01/13 03:41:40;;;;;;;2.20;1.50;;;;;;;4.95;81.88;102100.72;1626680;87;21086;-90
2022/01/13 03:44:17;;;;;;;1.67;1.32;;;;;;;4.87;81.79;102091.06;1626264;87;21055;-90
2022/01/13 03:46:38;;;;;;;1.47;0.95;;;;;;;4.97;81.80;102100.84;1625952;88;21533;-92
2022/01/13 03:49:07;;;;;;;1.67;1.35;;;;;;;4.96;81.78;102081.67;1625820;87;21110;-90
2022/01/13 03:51:58;;;;;;;1.45;1.17;;;;;;;4.96;81.83;102105.16;1626413;88;21079;-90
2022/01/13 03:54:39;;;;;;;1.45;1.30;;;;;;;4.97;81.86;102096.92;1626142;88;21170;-89
2022/01/13 03:57:51;;;;;;;2.42;1.40;;;;;;;4.99;81.93;102082.27;1616258;86;21687;-89
2022/01/13 04:01:02;;;;;;;1.80;1.17;;;;;;;5.02;81.96;102087.30;1624495;88;21886;-89
2022/01/13 04:03:33;;;;;;;1.67;1.20;;;;;;;5.05;82.00;102090.14;1584495;89;50061;-90
2022/01/13 04:06:13;;;;;;;2.35;1.50;;;;;;;5.08;82.02;102094.66;1595051;89;21166;-89
2022/01/13 04:08:40;;;;;;;1.22;1.00;;;;;;;5.10;82.05;102079.11;1591787;89;21289;-89
2022/01/13 04:11:17;;;;;;;1.22;1.12;;;;;;;5.12;82.08;102086.23;1595413;89;21691;-89
2022/01/13 04:13:52;;;;;;;1.40;1.30;;;;;;;5.13;82.04;102091.07;1574698;89;21771;-89
2022/01/13 04:16:21;;;;;;;1.50;1.07;;;;;;;5.14;82.09;102100.28;1595190;89;21862;-88
2022/01/13 04:18:49;;;;;;;1.47;1.37;;;;;;;5.18;82.09;102093.57;1595063;89;21600;-88
2022/01/13 04:21:19;;;;;;;1.30;1.20;;;;;;;5.20;82.11;102086.75;1595268;89;21116;-89
2022/01/13 04:23:45;;;;;;;1.25;1.10;;;;;;;5.22;82.12;102079.55;1595180;89;21210;-89
2022/01/13 04:26:19;;;;;;;2.37;1.27;;;;;;;5.26;82.16;102076.75;1573516;89;21709;-86
2022/01/13 04:28:51;;;;;;;1.72;1.20;;;;;;;5.30;82.17;102073.95;1563669;91;22624;-88
2022/01/13 04:31:16;;;;;;;2.75;1.65;;;;;;;5.33;82.15;102067.23;1562932;91;21079;-85
2022/01/13 04:33:46;;;;;;;3.22;1.80;;;;;;;5.36;82.08;102063.91;1563641;91;21160;-87
2022/01/13 04:36:11;;;;;;;2.17;1.40;;;;;;;5.37;82.07;102055.28;1563882;91;21190;-87
2022/01/13 04:38:38;;;;;;;2.45;1.50;;;;;;;5.38;82.07;102040.10;1623701;88;21633;-89
2022/01/13 04:41:05;;;;;;;3.85;1.60;;;;;;;5.37;82.03;102035.30;1625625;88;22593;-90
2022/01/13 04:43:32;;;;;;;2.15;1.60;;;;;;;5.39;82.11;102045.44;1625671;88;21565;-90
2022/01/13 04:46:02;;;;;;;1.80;1.30;;;;;;;5.42;82.10;102040.43;1625695;87;21863;-91
2022/01/13 04:48:35;;;;;;;1.85;1.00;;;;;;;5.42;82.11;102005.55;1598063;88;21411;-91
2022/01/13 04:51:03;;;;;;;1.98;1.37;;;;;;;5.42;82.08;101987.27;1597862;88;21028;-91
2022/01/13 04:53:33;;;;;;;2.50;1.60;;;;;;;5.42;82.12;101979.44;1625001;88;21763;-88
2022/01/13 04:56:09;;;;;;;2.83;1.55;;;;;;;5.42;82.10;101971.61;1623906;88;21118;-81
2022/01/13 04:58:27;;;;;;;2.90;1.70;;;;;;;5.41;82.11;101966.80;1622059;88;21082;-82
2022/01/13 05:00:59;;;;;;;3.02;1.70;;;;;;;5.41;82.11;101964.59;1623903;87;21548;-81
2022/01/13 05:03:26;;;;;;;1.50;1.40;;;;;;;5.41;82.17;101955.45;1596705;88;21137;-79
2022/01/13 05:05:56;;;;;;;3.35;2.30;;;;;;;5.43;82.24;101960.38;1617323;88;21667;-79
2022/01/13 05:08:24;;;;;;;2.27;1.52;;;;;;;5.44;82.32;101948.73;1623679;88;21117;-79
2022/01/13 05:10:52;;;;;;;2.95;1.52;;;;;;;5.47;82.34;101950.62;1623972;88;21127;-79
2022/01/13 05:13:22;;;;;;;2.22;1.60;;;;;;;5.49;82.38;101955.95;1623694;88;21086;-78
2022/01/13 05:15:50;;;;;;;4.00;1.77;;;;;;;5.53;82.44;101958.84;1623465;87;21158;-78
2022/01/13 05:18:23;;;;;;;3.05;1.90;;;;;;;5.55;82.41;101968.98;1623661;88;22453;-78
2022/01/13 05:20:56;;;;;;;3.60;2.12;;;;;;;5.58;82.45;101969.20;1622696;88;21179;-79
2022/01/13 05:23:17;;;;;;;4.50;2.15;;;;;;;5.60;82.49;101957.55;1622125;88;21118;-79
2022/01/13 05:25:44;;;;;;;3.25;1.92;;;;;;;5.62;82.54;101955.52;1627654;87;21113;-79
2022/01/13 05:28:15;;;;;;;3.33;2.05;;;;;;;5.65;82.54;101950.52;1636880;87;21209;-79
2022/01/13 05:30:42;;;;;;;4.42;2.22;;;;;;;5.67;82.51;101964.05;1637068;87;22628;-79
2022/01/13 05:33:10;;;;;;;3.77;2.52;;;;;;;5.71;82.60;101977.84;1605788;87;21098;-78
2022/01/13 05:35:37;;;;;;;4.35;2.67;;;;;;;5.74;82.57;101979.32;1636864;87;21622;-78
2022/01/13 05:38:08;;;;;;;3.50;2.58;;;;;;;5.75;82.56;101971.59;1636835;87;21136;-76
2022/01/13 05:40:35;;;;;;;5.25;3.25;;;;;;;5.77;82.49;101950.38;1607948;87;21150;-80
2022/01/13 05:43:04;;;;;;;4.28;3.83;;;;;;;5.79;82.46;101950.48;1637485;87;21783;-82
2022/01/13 05:45:33;;;;;;;3.80;2.95;;;;;;;5.77;82.41;101941.64;1637264;86;21140;-75
2022/01/13 05:48:02;;;;;;;4.50;3.22;;;;;;;5.76;82.38;101930.30;1606530;87;21113;-76
2022/01/13 05:50:33;;;;;;;4.17;2.90;;;;;;;5.75;82.34;101922.36;1637002;87;21183;-80
2022/01/13 05:53:03;;;;;;;4.70;2.77;;;;;;;5.73;82.35;101917.45;1637154;86;21630;-80
2022/01/13 05:55:32;;;;;;;4.83;2.80;;;;;;;5.71;82.38;101900.36;1637054;87;21989;-75
2022/01/13 05:58:02;;;;;;;4.55;2.85;;;;;;;5.73;82.45;101912.22;1636795;87;21128;-75
2022/01/13 06:00:32;;;;;;;5.20;2.55;;;;;;;5.72;82.38;101910.40;1636837;87;21048;-81
2022/01/13 06:03:02;;;;;;;3.47;2.70;;;;;;;5.72;82.34;101917.83;1636888;86;21101;-79
2022/01/13 06:05:28;;;;;;;4.28;2.30;;;;;;;5.72;82.37;101916.93;1634411;87;21622;-80
2022/01/13 06:07:57;;;;;;;6.28;2.92;;;;;;;5.73;82.45;101919.64;1606604;87;21851;-80
2022/01/13 06:10:29;;;;;;;3.92;2.70;;;;;;;5.77;82.59;101937.73;1636735;86;21122;-79
2022/01/13 06:12:57;;;;;;;3.62;2.62;;;;;;;5.82;82.55;101948.97;1637057;86;21607;-79
2022/01/13 06:15:25;;;;;;;4.10;2.52;;;;;;;5.87;82.55;101948.35;1636903;87;21118;-80
2022/01/13 06:17:59;;;;;;;2.95;2.35;;;;;;;5.90;82.49;101957.70;1629707;86;21598;-95
2022/01/13 06:20:27;;;;;;;4.47;2.62;;;;;;;5.93;82.45;101979.71;1618729;88;21742;-93
2022/01/13 06:22:54;;;;;;;5.30;2.83;;;;;;;5.99;82.45;102004.06;1619580;87;21596;-93
2022/01/13 06:25:25;;;;;;;5.45;2.52;;;;;;;6.02;82.38;102006.47;1618594;88;21126;-93
2022/01/13 06:27:55;;;;;;;4.22;2.22;;;;;;;6.05;82.32;102016.61;1596078;88;21107;-94
2022/01/13 06:30:22;;;;;;;4.30;2.42;;;;;;;6.08;82.29;102029.86;1614481;88;21040;-93
2022/01/13 06:32:48;;;;;;;3.33;2.30;;;;;;;6.09;82.22;102005.12;1614554;88;21784;-93
2022/01/13 06:35:15;;;;;;;4.50;2.55;;;;;;;6.11;82.21;102053.59;1614402;88;21661;-92
2022/01/13 06:37:42;;;;;;;3.92;2.15;;;;;;;6.13;82.17;102020.61;1614429;88;21056;-93
2022/01/13 06:40:11;;;;;;;2.98;2.15;;;;;;;6.13;82.14;102027.14;1614329;88;21144;-93
2022/01/13 06:42:38;;;;;;;5.37;2.50;;;;;;;6.13;82.13;102049.36;1614594;88;21083;-93
2022/01/13 06:45:16;;;;;;;4.47;2.70;;;;;;;6.14;82.09;102057.72;1614050;87;21096;-93
2022/01/13 06:47:43;;;;;;;5.87;3.47;;;;;;;6.14;82.06;102062.53;1614596;88;21047;-93
2022/01/13 06:50:12;;;;;;;2.77;2.37;;;;;;;6.14;82.04;102069.07;1614370;88;21071;-93
2022/01/13 06:52:42;;;;;;;4.67;2.47;;;;;;;6.16;82.08;102062.64;1614582;88;21143;-92
2022/01/13 06:55:09;;;;;;;4.75;2.60;;;;;;;6.18;82.08;102076.71;1614715;88;21072;-92
2022/01/13 06:57:37;;;;;;;4.55;2.52;;;;;;;6.20;82.07;102063.33;1592833;88;21624;-94
2022/01/13 07:00:07;;;;;;;6.87;3.00;;;;;;;6.22;82.01;102057.37;1613992;88;21641;-92
2022/01/13 07:02:35;;;;;;;3.90;2.27;;;;;;;6.23;82.00;102059.58;1614529;88;21609;-92
2022/01/13 07:05:01;;;;;;;5.25;2.62;;;;;;;6.23;81.98;102070.04;1614476;88;21118;-92
2022/01/13 07:07:33;;;;;;;3.37;2.62;;;;;;;6.21;81.99;102066.42;1614310;88;21382;-93
2022/01/13 07:09:59;;;;;;;3.37;2.20;;;;;;;6.22;82.04;102060.00;1614215;88;21794;-92
2022/01/13 07:12:29;;;;;;;3.50;1.85;;;;;;;6.22;82.01;102063.91;1614253;88;21689;-93
2022/01/13 07:14:58;;;;;;;3.27;2.20;;;;;;;6.21;82.02;102067.36;1614423;88;21056;-93
2022/01/13 07:17:24;;;;;;;3.83;2.20;;;;;;;6.22;82.05;102055.18;1614193;88;21064;-92
2022/01/13 07:19:53;;;;;;;3.25;1.87;;;;;;;6.25;82.09;102057.07;1614622;88;21067;-93
2022/01/13 07:22:20;;;;;;;2.47;1.85;;;;;;;6.26;82.09;102063.71;1614653;88;21807;-92
2022/01/13 07:24:49;;;;;;;5.17;2.22;;;;;;;6.26;82.05;102060.20;1614338;88;21145;-94
2022/01/13 07:27:15;;;;;;;3.92;1.75;;;;;;;6.27;82.09;102042.00;1620460;87;21074;-93
2022/01/13 07:29:45;;;;;;;4.33;1.80;;;;;;;6.28;82.09;102062.51;1624021;88;21180;-93
2022/01/13 07:32:13;;;;;;;3.10;2.10;;;;;;;6.29;82.11;102062.98;1624060;88;21075;-93
2022/01/13 07:34:42;;;;;;;3.67;2.00;;;;;;;6.31;82.09;102053.56;1623550;88;21320;-92
2022/01/13 07:37:09;;;;;;;4.40;2.55;;;;;;;6.33;82.02;102048.91;1623755;88;21755;-93
2022/01/13 07:39:38;;;;;;;2.27;1.80;;;;;;;6.35;81.99;102047.30;1585855;88;22271;-93
2022/01/13 07:42:05;;;;;;;2.92;1.67;;;;;;;6.34;81.99;102051.13;1623539;88;21162;-93
2022/01/13 07:44:34;;;;;;;3.65;1.90;;;;;;;6.38;82.03;102059.27;1623221;88;21067;-93
2022/01/13 07:47:01;;;;;;;3.45;2.10;;;;;;;6.40;82.06;102052.42;1623600;88;21791;-93
2022/01/13 07:49:28;;;;;;;4.30;1.95;;;;;;;6.43;82.02;102041.23;1623555;87;21062;-93
2022/01/13 07:51:55;;;;;;;2.92;1.85;;;;;;;6.43;81.95;102036.91;1623686;88;21133;-93
2022/01/13 07:54:25;;;;;;;4.60;2.80;;;;;;;6.46;81.99;102040.13;1623531;88;21197;-93
2022/01/13 07:56:50;;;;;;;3.67;2.40;;;;;;;6.47;81.98;102036.69;1623370;88;21782;-93
2022/01/13 07:59:19;;;;;;;3.87;2.17;;;;;;;6.49;81.95;102046.84;1623522;88;22583;-92
2022/01/13 08:01:46;;;;;;;3.25;1.70;;;;;;;6.52;82.01;102044.84;1623435;88;21115;-94
2022/01/13 08:04:13;;;;;;;3.20;1.98;;;;;;;6.54;81.97;102048.04;1623492;88;21075;-94
2022/01/13 08:06:42;;;;;;;5.15;2.20;;;;;;;6.56;81.99;102046.84;1623586;88;21067;-95
2022/01/13 08:09:08;;;;;;;3.15;1.70;;;;;;;6.58;82.01;102050.03;1623358;88;21127;-94
2022/01/13 08:11:35;;;;;;;3.08;1.60;;;;;;;6.59;82.02;102053.16;1623523;88;22415;-94
2022/01/13 08:14:02;;;;;;;5.50;2.00;;;;;;;6.62;81.95;102047.20;1623141;88;21127;-90
2022/01/13 08:16:33;;;;;;;4.12;2.15;;;;;;;6.64;81.99;102043.37;1623464;88;21739;-94
2022/01/13 08:21:42;;;;;;;6.58;3.60;;;;;;;6.71;82.07;102034.69;1623599;88;21063;-95
2022/01/13 08:24:13;;;;;;;4.62;2.67;;;;;;;6.75;82.01;102026.21;1623387;88;21757;-94
2022/01/13 08:26:38;;;;;;;3.62;2.33;;;;;;;6.80;82.02;102031.33;1620270;88;21119;-95
2022/01/13 08:29:08;;;;;;;4.70;2.20;;;;;;;6.84;81.92;102014.52;1614029;88;21580;-93
2022/01/13 08:31:34;;;;;;;5.75;2.37;;;;;;;6.87;81.96;102005.14;1614147;88;21690;-86
2022/01/13 08:34:01;;;;;;;5.47;2.60;;;;;;;6.92;81.96;102011.52;1614287;88;21055;-94
2022/01/13 08:36:28;;;;;;;4.10;2.33;;;;;;;6.94;81.78;101991.98;1614329;88;22608;-94
2022/01/13 08:38:55;;;;;;;4.55;2.60;;;;;;;6.96;81.76;102000.84;1614112;88;21103;-94
2022/01/13 08:41:23;;;;;;;5.35;2.33;;;;;;;6.97;81.80;101997.42;1592917;88;21629;-94
2022/01/13 08:43:52;;;;;;;6.97;2.42;;;;;;;6.89;81.71;101984.27;1614363;88;21080;-94
2022/01/13 08:46:18;;;;;;;7.75;3.62;;;;;;;6.99;81.80;101988.83;1614203;88;21126;-94
2022/01/13 08:48:49;;;;;;;3.98;2.60;;;;;;;7.04;81.79;101993.05;1614165;88;21819;-94
2022/01/13 08:51:17;;;;;;;5.78;2.83;;;;;;;7.08;81.73;101996.34;1613610;88;21060;-93
2022/01/13 08:53:42;;;;;;;6.05;2.83;;;;;;;7.12;81.82;102002.25;1614195;88;21044;-94
2022/01/13 08:56:09;;;;;;;5.37;2.72;;;;;;;7.18;81.79;101993.85;1614389;88;21131;-93
2022/01/13 08:58:36;;;;;;;6.17;3.25;;;;;;;7.24;81.73;101994.20;1614502;88;21581;-94
2022/01/13 09:01:07;;;;;;;5.97;2.90;;;;;;;7.29;81.70;102003.66;1614019;88;21827;-92
2022/01/13 09:03:35;;;;;;;6.55;3.27;;;;;;;7.30;81.54;101993.66;1614116;88;21056;-94
2022/01/13 09:06:03;;;;;;;7.97;3.00;;;;;;;7.34;81.53;101994.36;1614218;88;21875;-93
2022/01/13 09:08:30;;;;;;;9.20;3.95;;;;;;;7.35;81.54;101994.42;1614237;88;21071;-94
2022/01/13 09:10:57;;;;;;;7.15;3.22;;;;;;;7.36;81.38;102008.44;1614362;88;21055;-93
2022/01/13 09:13:25;;;;;;;7.62;3.10;;;;;;;7.35;81.36;102000.08;1613972;88;21523;-94
2022/01/13 09:15:59;;;;;;;7.90;3.55;;;;;;;7.36;81.39;101995.34;1614054;88;21137;-94
2022/01/13 09:18:46;;;;;;;7.83;3.12;;;;;;;7.37;81.40;101989.28;1614314;88;21052;-94
2022/01/13 09:21:01;;;;;;;7.87;3.98;;;;;;;7.39;81.32;101992.88;1612394;88;21094;-93
2022/01/13 09:23:28;;;;;;;8.80;4.25;;;;;;;7.38;81.27;101995.92;1614290;88;21555;-94
2022/01/13 09:25:58;;;;;;;7.80;3.60;;;;;;;7.38;81.27;101993.72;1613921;88;21131;-93
2022/01/13 09:28:25;;;;;;;6.62;3.58;;;;;;;7.41;81.28;101983.39;1622317;88;21043;-94
2022/01/13 09:30:51;;;;;;;7.10;3.30;;;;;;;7.41;81.19;101979.47;1623687;88;21111;-93
2022/01/13 09:33:18;;;;;;;6.15;3.30;;;;;;;7.42;81.21;101985.22;1623678;88;21216;-93
2022/01/13 09:35:45;;;;;;;7.72;2.70;;;;;;;7.42;81.12;101975.15;1623647;88;21075;-89
2022/01/13 09:38:11;;;;;;;6.97;3.12;;;;;;;7.40;81.08;101962.85;1623574;88;21775;-94
2022/01/13 09:40:38;;;;;;;7.55;3.08;;;;;;;7.39;81.12;101965.37;1623698;88;21574;-93
2022/01/13 09:43:05;;;;;;;6.80;2.90;;;;;;;7.43;81.13;101969.08;1623860;88;21719;-93
2022/01/13 09:45:38;;;;;;;7.22;3.17;;;;;;;7.45;81.04;101967.45;1623446;88;21656;-94
2022/01/13 09:48:04;;;;;;;6.78;2.65;;;;;;;7.42;80.98;101959.02;1623873;88;21074;-94
2022/01/13 09:50:30;;;;;;;9.25;2.83;;;;;;;7.42;80.94;101963.36;1623609;88;22701;-94
2022/01/13 09:52:57;;;;;;;6.28;2.80;;;;;;;7.42;80.96;101948.95;1623511;88;21098;-93
2022/01/13 09:55:24;;;;;;;6.05;2.85;;;;;;;7.42;80.96;101942.41;1623435;88;21044;-92
2022/01/13 09:57:53;;;;;;;5.90;3.10;;;;;;;7.46;80.99;101948.31;1622931;88;21293;-94
2022/01/13 10:00:25;;;;;;;5.87;2.65;;;;;;;7.51;80.96;101935.97;1623572;88;21083;-92
2022/01/13 10:02:51;;;;;;;6.92;3.27;;;;;;;7.56;80.94;101938.45;1623941;88;21846;-92
2022/01/13 10:05:19;;;;;;;5.85;3.20;;;;;;;7.65;80.89;101942.38;1623549;88;21106;-94
2022/01/13 10:07:47;;;;;;;5.53;2.50;;;;;;;7.70;80.76;101936.58;1623781;88;21155;-94
2022/01/13 10:10:16;;;;;;;6.08;3.10;;;;;;;7.76;80.68;101929.47;1623662;88;21574;-94
2022/01/13 10:12:45;;;;;;;6.47;2.45;;;;;;;7.82;80.65;101929.80;1623583;88;21109;-93
2022/01/13 10:18:08;;;;;;;6.55;2.70;;;;;;;7.91;80.40;101925.06;1623567;88;21102;-93
2022/01/13 10:20:34;;;;;;;5.28;2.58;;;;;;;8.01;80.40;101938.25;1623993;88;21158;-93
2022/01/13 10:23:10;;;;;;;5.78;2.65;;;;;;;8.04;80.18;101924.02;1623972;88;21099;-93
2022/01/13 10:25:43;;;;;;;5.45;2.75;;;;;;;8.03;79.99;101933.99;1623945;88;21044;-93
2022/01/13 10:28:21;;;;;;;9.08;2.50;;;;;;;8.01;79.88;101933.43;1617570;88;21844;-93
2022/01/13 10:30:52;;;;;;;4.67;2.22;;;;;;;8.02;79.87;101932.20;1614413;88;21040;-93
2022/01/13 10:33:26;;;;;;;6.33;2.60;;;;;;;8.01;79.73;101940.88;1614488;88;21111;-94
2022/01/13 10:35:57;;;;;;;4.47;2.30;;;;;;;7.93;79.68;101940.46;1614428;88;21131;-93
2022/01/13 10:38:24;;;;;;;5.03;2.35;;;;;;;7.91;79.65;101943.41;1603660;88;21596;-93
2022/01/13 10:40:53;;;;;;;6.30;2.72;;;;;;;7.89;79.65;101946.78;1614626;87;21751;-93
2022/01/13 10:43:23;;;;;;;5.70;2.92;;;;;;;7.88;79.68;101928.84;1614524;88;21625;-93
2022/01/13 10:45:55;;;;;;;5.20;2.83;;;;;;;7.89;79.64;101937.19;1614753;88;21099;-94
2022/01/13 10:48:28;;;;;;;5.95;2.80;;;;;;;7.88;79.60;101938.41;1614551;88;21087;-93
2022/01/13 10:51:04;;;;;;;5.35;2.60;;;;;;;7.88;79.66;101932.78;1614565;88;21092;-93
2022/01/13 10:53:37;;;;;;;3.83;2.20;;;;;;;7.88;79.59;101930.55;1614265;88;21833;-93
2022/01/13 10:56:11;;;;;;;5.12;2.40;;;;;;;7.86;79.55;101913.41;1614366;88;21102;-93
2022/01/13 10:58:52;;;;;;;9.33;2.90;;;;;;;7.79;79.68;101897.78;1613977;88;21083;-94
2022/01/13 11:01:19;;;;;;;4.25;2.25;;;;;;;7.94;79.65;101922.62;1613514;88;21421;-93
2022/01/13 11:03:47;;;;;;;5.00;2.52;;;;;;;8.00;79.66;101915.91;1614324;88;21132;-94
2022/01/13 11:06:15;;;;;;;5.05;2.72;;;;;;;8.07;79.58;101907.14;1614258;88;22598;-94
2022/01/13 11:08:47;;;;;;;5.12;2.52;;;;;;;8.12;79.45;101912.63;1592959;88;21150;-92
2022/01/13 11:11:24;;;;;;;4.28;2.08;;;;;;;8.14;79.36;101913.19;1614294;88;21098;-94
2022/01/13 11:13:54;;;;;;;6.45;2.67;;;;;;;8.12;79.19;101920.48;1594220;88;21071;-92
2022/01/13 11:16:21;;;;;;;5.42;2.45;;;;;;;8.12;79.14;101921.37;1613145;88;21092;-92
2022/01/13 11:18:48;;;;;;;6.53;3.55;;;;;;;8.10;79.10;101908.59;1593901;88;22051;-91
2022/01/13 11:21:17;;;;;;;6.08;3.00;;;;;;;8.09;79.06;101922.94;1613816;88;21229;-94
2022/01/13 11:23:47;;;;;;;5.58;3.58;;;;;;;8.05;78.98;101914.41;1614226;88;21075;-92
2022/01/13 11:26:14;;;;;;;5.55;2.42;;;;;;;7.97;78.99;101918.83;1614264;88;21123;-92
2022/01/13 11:28:40;;;;;;;11.30;4.45;;;;;;;7.93;78.93;101914.66;1613925;87;21131;-92
2022/01/13 11:31:10;;;;;;;8.85;3.60;;;;;;;7.92;79.06;101919.40;1614160;88;21906;-93
2022/01/13 11:33:38;;;;;;;5.58;2.80;;;;;;;7.88;79.08;101909.19;1614062;88;22091;-92
2022/01/13 11:36:07;;;;;;;4.42;2.62;;;;;;;7.91;79.12;101911.06;1614031;88;21087;-92
2022/01/13 11:38:34;;;;;;;8.00;2.87;;;;;;;7.93;79.21;101903.76;1615267;88;21691;-93
2022/01/13 11:41:04;;;;;;;5.45;2.62;;;;;;;7.96;79.14;101888.63;1614153;88;21114;-92
2022/01/13 11:43:40;;;;;;;6.92;3.65;;;;;;;7.98;79.10;101898.78;1614249;88;21640;-92
2022/01/13 11:46:27;;;;;;;7.62;3.60;;;;;;;7.98;79.12;101893.12;1614173;88;21617;-93
2022/01/13 11:49:04;;;;;;;5.92;2.98;;;;;;;8.00;79.05;101881.83;1614302;88;21056;-92
2022/01/13 11:52:01;;;;;;;7.17;2.83;;;;;;;7.92;78.92;101899.35;1613606;88;21866;-93
2022/01/13 11:54:34;;;;;;;5.25;2.70;;;;;;;7.87;78.99;101906.47;1614188;88;21076;-92
2022/01/13 11:57:19;;;;;;;6.55;2.87;;;;;;;7.82;79.00;101895.72;1614330;88;22595;-92
2022/01/13 12:00:03;;;;;;;8.68;3.10;;;;;;;7.78;79.07;101896.38;1613892;88;21135;-92
2022/01/13 12:02:36;;;;;;;6.30;2.90;;;;;;;7.75;79.16;101894.50;1592685;88;21168;-92
2022/01/13 12:05:20;;;;;;;9.50;3.37;;;;;;;7.72;79.22;101890.81;1613695;88;21091;-92
2022/01/13 12:07:47;;;;;;;6.10;2.75;;;;;;;7.73;79.30;101888.66;1611924;88;21099;-92
2022/01/13 12:10:25;;;;;;;7.08;3.00;;;;;;;7.70;79.29;101891.14;1614361;88;21735;-93